sensor_id;sensor_type;location;lat;lon;timestamp;temperature;humidity
78550;DHT22;68091;52.130;5.570;2023-06-22T00:01:27;18.50;99.90
78550;DHT22;68091;52.130;5.570;2023-06-22T00:03:53;18.50;99.90
78550;DHT22;68091;52.130;5.570;2023-06-22T00:06:19;18.50;99.90
78550;DHT22;68091;52.130;5.570;2023-06-22T00:08:44;18.50;99.90
78550;DHT22;68091;52.130;5.570;2023-06-22T00:11:10;18.50;99.90
78550;DHT22;68091;52.130;5.570;2023-06-22T00:13:36;18.40;99.90
78550;DHT22;68091;52.130;5.570;2023-06-22T00:16:02;18.40;99.90
78550;DHT22;68091;52.130;5.570;2023-06-22T00:18:28;18.40;99.90
78550;DHT22;68091;52.130;5.570;2023-06-22T00:20:55;18.40;99.90
78550;DHT22;68091;52.130;5.570;2023-06-22T00:23:23;18.30;99.90
78550;DHT22;68091;52.130;5.570;2023-06-22T00:25:49;18.30;99.90
78550;DHT22;68091;52.130;5.570;2023-06-22T00:28:15;18.30;99.90
78550;DHT22;68091;52.130;5.570;2023-06-22T00:30:41;18.30;99.90
78550;DHT22;68091;52.130;5.570;2023-06-22T00:33:06;18.20;99.90
78550;DHT22;68091;52.130;5.570;2023-06-22T00:35:33;18.10;99.90
78550;DHT22;68091;52.130;5.570;2023-06-22T00:38:00;18.10;99.90
78550;DHT22;68091;52.130;5.570;2023-06-22T00:40:30;18.10;99.90
78550;DHT22;68091;52.130;5.570;2023-06-22T00:42:57;18.10;99.90
78550;DHT22;68091;52.130;5.570;2023-06-22T00:45:24;18.00;99.90
78550;DHT22;68091;52.130;5.570;2023-06-22T00:47:51;18.00;99.90
78550;DHT22;68091;52.130;5.570;2023-06-22T00:50:20;18.00;99.90
78550;DHT22;68091;52.130;5.570;2023-06-22T00:52:53;17.90;99.90
78550;DHT22;68091;52.130;5.570;2023-06-22T00:55:20;17.80;99.90
78550;DHT22;68091;52.130;5.570;2023-06-22T00:57:47;17.80;99.90
78550;DHT22;68091;52.130;5.570;2023-06-22T01:00:14;17.70;99.90
78550;DHT22;68091;52.130;5.570;2023-06-22T01:02:43;17.70;99.90
78550;DHT22;68091;52.130;5.570;2023-06-22T01:05:12;17.70;99.90
78550;DHT22;68091;52.130;5.570;2023-06-22T01:07:58;17.60;99.90
78550;DHT22;68091;52.130;5.570;2023-06-22T01:10:39;17.60;99.90
78550;DHT22;68091;52.130;5.570;2023-06-22T01:13:16;17.60;99.90
78550;DHT22;68091;52.130;5.570;2023-06-22T01:15:51;17.50;99.90
78550;DHT22;68091;52.130;5.570;2023-06-22T01:18:19;17.50;99.90
78550;DHT22;68091;52.130;5.570;2023-06-22T01:20:46;17.50;99.90
78550;DHT22;68091;52.130;5.570;2023-06-22T01:23:29;17.40;99.90
78550;DHT22;68091;52.130;5.570;2023-06-22T01:29:21;17.50;99.90
78550;DHT22;68091;52.130;5.570;2023-06-22T01:31:48;17.40;99.90
78550;DHT22;68091;52.130;5.570;2023-06-22T01:34:15;17.40;99.90
78550;DHT22;68091;52.130;5.570;2023-06-22T01:36:42;17.40;99.90
78550;DHT22;68091;52.130;5.570;2023-06-22T01:39:09;17.40;99.90
78550;DHT22;68091;52.130;5.570;2023-06-22T01:41:37;17.30;99.90
78550;DHT22;68091;52.130;5.570;2023-06-22T01:44:05;17.30;99.90
78550;DHT22;68091;52.130;5.570;2023-06-22T01:46:38;17.30;99.90
78550;DHT22;68091;52.130;5.570;2023-06-22T01:49:05;17.30;99.90
78550;DHT22;68091;52.130;5.570;2023-06-22T01:51:31;17.30;99.90
78550;DHT22;68091;52.130;5.570;2023-06-22T01:53:57;17.20;99.90
78550;DHT22;68091;52.130;5.570;2023-06-22T01:56:23;17.30;99.90
78550;DHT22;68091;52.130;5.570;2023-06-22T01:59:15;17.20;99.90
78550;DHT22;68091;52.130;5.570;2023-06-22T02:01:59;17.20;99.90
78550;DHT22;68091;52.130;5.570;2023-06-22T02:04:34;17.10;99.90
78550;DHT22;68091;52.130;5.570;2023-06-22T02:07:06;17.00;99.90
78550;DHT22;68091;52.130;5.570;2023-06-22T02:09:35;17.10;99.90
78550;DHT22;68091;52.130;5.570;2023-06-22T02:12:04;16.90;99.90
78550;DHT22;68091;52.130;5.570;2023-06-22T02:14:30;17.00;99.90
78550;DHT22;68091;52.130;5.570;2023-06-22T02:16:57;17.00;99.90
78550;DHT22;68091;52.130;5.570;2023-06-22T02:19:25;16.90;99.90
78550;DHT22;68091;52.130;5.570;2023-06-22T02:21:52;16.90;99.90
78550;DHT22;68091;52.130;5.570;2023-06-22T02:24:17;17.00;99.90
78550;DHT22;68091;52.130;5.570;2023-06-22T02:26:43;17.00;99.90
78550;DHT22;68091;52.130;5.570;2023-06-22T02:29:11;16.90;99.90
78550;DHT22;68091;52.130;5.570;2023-06-22T02:31:36;16.90;99.90
78550;DHT22;68091;52.130;5.570;2023-06-22T02:34:02;16.90;99.90
78550;DHT22;68091;52.130;5.570;2023-06-22T02:36:28;16.90;99.90
78550;DHT22;68091;52.130;5.570;2023-06-22T02:38:55;16.90;99.90
78550;DHT22;68091;52.130;5.570;2023-06-22T02:41:26;16.80;99.90
78550;DHT22;68091;52.130;5.570;2023-06-22T02:43:52;16.80;99.90
78550;DHT22;68091;52.130;5.570;2023-06-22T02:46:18;16.80;99.90
78550;DHT22;68091;52.130;5.570;2023-06-22T02:48:44;16.80;99.90
78550;DHT22;68091;52.130;5.570;2023-06-22T02:51:09;16.80;99.90
78550;DHT22;68091;52.130;5.570;2023-06-22T02:53:35;16.80;99.90
78550;DHT22;68091;52.130;5.570;2023-06-22T02:56:04;16.70;99.90
78550;DHT22;68091;52.130;5.570;2023-06-22T02:58:31;16.80;99.90
78550;DHT22;68091;52.130;5.570;2023-06-22T03:01:06;16.70;99.90
78550;DHT22;68091;52.130;5.570;2023-06-22T03:03:32;16.60;99.90
78550;DHT22;68091;52.130;5.570;2023-06-22T03:05:58;16.70;99.90
78550;DHT22;68091;52.130;5.570;2023-06-22T03:08:23;16.60;99.90
78550;DHT22;68091;52.130;5.570;2023-06-22T03:10:49;16.50;99.90
78550;DHT22;68091;52.130;5.570;2023-06-22T03:13:15;16.60;99.90
78550;DHT22;68091;52.130;5.570;2023-06-22T03:15:40;16.60;99.90
78550;DHT22;68091;52.130;5.570;2023-06-22T03:18:06;16.50;99.90
78550;DHT22;68091;52.130;5.570;2023-06-22T03:20:32;16.50;99.90
78550;DHT22;68091;52.130;5.570;2023-06-22T03:22:59;16.50;99.90
78550;DHT22;68091;52.130;5.570;2023-06-22T03:25:25;16.50;99.90
78550;DHT22;68091;52.130;5.570;2023-06-22T03:27:51;16.50;99.90
78550;DHT22;68091;52.130;5.570;2023-06-22T03:30:16;16.50;99.90
78550;DHT22;68091;52.130;5.570;2023-06-22T03:32:42;16.50;99.90
78550;DHT22;68091;52.130;5.570;2023-06-22T03:35:09;16.50;99.90
78550;DHT22;68091;52.130;5.570;2023-06-22T03:37:39;16.40;99.90
78550;DHT22;68091;52.130;5.570;2023-06-22T03:40:06;16.40;99.90
78550;DHT22;68091;52.130;5.570;2023-06-22T03:42:33;16.40;99.90
78550;DHT22;68091;52.130;5.570;2023-06-22T03:44:58;16.40;99.90
78550;DHT22;68091;52.130;5.570;2023-06-22T03:47:26;16.40;99.90
78550;DHT22;68091;52.130;5.570;2023-06-22T03:49:51;16.50;99.90
78550;DHT22;68091;52.130;5.570;2023-06-22T03:52:23;16.50;99.90
78550;DHT22;68091;52.130;5.570;2023-06-22T03:54:48;16.50;99.90
78550;DHT22;68091;52.130;5.570;2023-06-22T03:57:14;16.50;99.90
78550;DHT22;68091;52.130;5.570;2023-06-22T03:59:40;16.60;99.90
78550;DHT22;68091;52.130;5.570;2023-06-22T04:02:05;16.60;99.90
78550;DHT22;68091;52.130;5.570;2023-06-22T04:04:31;16.60;99.90
78550;DHT22;68091;52.130;5.570;2023-06-22T04:06:57;16.60;99.90
78550;DHT22;68091;52.130;5.570;2023-06-22T04:09:23;16.70;99.90
78550;DHT22;68091;52.130;5.570;2023-06-22T04:11:48;16.70;99.90
78550;DHT22;68091;52.130;5.570;2023-06-22T04:14:14;16.70;99.90
78550;DHT22;68091;52.130;5.570;2023-06-22T04:16:40;16.70;99.90
78550;DHT22;68091;52.130;5.570;2023-06-22T04:19:05;16.80;99.90
78550;DHT22;68091;52.130;5.570;2023-06-22T04:21:31;16.80;99.90
78550;DHT22;68091;52.130;5.570;2023-06-22T04:23:57;16.80;99.90
78550;DHT22;68091;52.130;5.570;2023-06-22T04:26:22;16.80;99.90
78550;DHT22;68091;52.130;5.570;2023-06-22T04:28:48;16.90;99.90
78550;DHT22;68091;52.130;5.570;2023-06-22T04:31:17;16.90;99.90
78550;DHT22;68091;52.130;5.570;2023-06-22T04:33:44;16.90;99.90
78550;DHT22;68091;52.130;5.570;2023-06-22T04:36:10;17.00;99.90
78550;DHT22;68091;52.130;5.570;2023-06-22T04:38:39;17.10;99.90
78550;DHT22;68091;52.130;5.570;2023-06-22T04:41:04;17.10;99.90
78550;DHT22;68091;52.130;5.570;2023-06-22T04:43:30;17.20;99.90
78550;DHT22;68091;52.130;5.570;2023-06-22T04:45:59;17.30;99.90
78550;DHT22;68091;52.130;5.570;2023-06-22T04:48:29;17.40;99.90
78550;DHT22;68091;52.130;5.570;2023-06-22T04:51:01;17.50;99.90
78550;DHT22;68091;52.130;5.570;2023-06-22T04:53:30;17.50;99.90
78550;DHT22;68091;52.130;5.570;2023-06-22T04:55:56;17.60;99.90
78550;DHT22;68091;52.130;5.570;2023-06-22T04:58:22;17.70;99.90
78550;DHT22;68091;52.130;5.570;2023-06-22T05:00:47;17.90;99.90
78550;DHT22;68091;52.130;5.570;2023-06-22T05:03:13;17.80;99.90
78550;DHT22;68091;52.130;5.570;2023-06-22T05:05:39;17.90;99.90
78550;DHT22;68091;52.130;5.570;2023-06-22T05:08:05;18.20;99.90
78550;DHT22;68091;52.130;5.570;2023-06-22T05:10:35;18.20;99.90
78550;DHT22;68091;52.130;5.570;2023-06-22T05:13:01;18.60;99.90
78550;DHT22;68091;52.130;5.570;2023-06-22T05:15:29;18.80;99.90
78550;DHT22;68091;52.130;5.570;2023-06-22T05:17:58;19.00;99.90
78550;DHT22;68091;52.130;5.570;2023-06-22T05:20:25;18.90;99.90
78550;DHT22;68091;52.130;5.570;2023-06-22T05:22:50;18.90;99.90
78550;DHT22;68091;52.130;5.570;2023-06-22T05:25:16;18.90;99.90
78550;DHT22;68091;52.130;5.570;2023-06-22T05:27:42;19.00;99.90
78550;DHT22;68091;52.130;5.570;2023-06-22T05:30:09;19.10;99.90
78550;DHT22;68091;52.130;5.570;2023-06-22T05:32:36;19.10;99.90
78550;DHT22;68091;52.130;5.570;2023-06-22T05:35:08;19.30;99.90
78550;DHT22;68091;52.130;5.570;2023-06-22T05:37:39;19.40;99.90
78550;DHT22;68091;52.130;5.570;2023-06-22T05:40:06;19.60;99.90
78550;DHT22;68091;52.130;5.570;2023-06-22T05:42:32;19.90;99.90
78550;DHT22;68091;52.130;5.570;2023-06-22T05:44:58;20.00;99.90
78550;DHT22;68091;52.130;5.570;2023-06-22T05:47:40;20.20;99.90
78550;DHT22;68091;52.130;5.570;2023-06-22T05:50:06;20.40;99.90
78550;DHT22;68091;52.130;5.570;2023-06-22T05:52:36;20.40;99.90
78550;DHT22;68091;52.130;5.570;2023-06-22T05:55:14;20.40;99.90
78550;DHT22;68091;52.130;5.570;2023-06-22T05:57:47;20.60;99.90
78550;DHT22;68091;52.130;5.570;2023-06-22T06:00:25;20.80;99.90
78550;DHT22;68091;52.130;5.570;2023-06-22T06:02:54;21.00;99.90
78550;DHT22;68091;52.130;5.570;2023-06-22T06:08:46;21.20;99.90
78550;DHT22;68091;52.130;5.570;2023-06-22T06:11:12;21.20;99.90
78550;DHT22;68091;52.130;5.570;2023-06-22T06:13:38;21.40;99.90
78550;DHT22;68091;52.130;5.570;2023-06-22T06:16:04;21.40;99.90
78550;DHT22;68091;52.130;5.570;2023-06-22T06:18:36;21.40;99.90
78550;DHT22;68091;52.130;5.570;2023-06-22T06:21:03;21.30;99.90
78550;DHT22;68091;52.130;5.570;2023-06-22T06:23:28;21.30;99.90
78550;DHT22;68091;52.130;5.570;2023-06-22T06:25:54;21.40;99.90
78550;DHT22;68091;52.130;5.570;2023-06-22T06:28:20;21.50;99.90
78550;DHT22;68091;52.130;5.570;2023-06-22T06:30:46;21.70;99.90
78550;DHT22;68091;52.130;5.570;2023-06-22T06:33:13;22.00;99.90
78550;DHT22;68091;52.130;5.570;2023-06-22T06:35:38;22.10;99.90
78550;DHT22;68091;52.130;5.570;2023-06-22T06:38:04;22.20;99.90
78550;DHT22;68091;52.130;5.570;2023-06-22T06:40:30;22.00;99.90
78550;DHT22;68091;52.130;5.570;2023-06-22T06:42:56;21.90;99.90
78550;DHT22;68091;52.130;5.570;2023-06-22T06:45:23;21.90;99.90
78550;DHT22;68091;52.130;5.570;2023-06-22T06:47:50;22.10;99.90
78550;DHT22;68091;52.130;5.570;2023-06-22T06:50:16;22.30;99.90
78550;DHT22;68091;52.130;5.570;2023-06-22T06:52:42;22.50;99.90
78550;DHT22;68091;52.130;5.570;2023-06-22T06:55:09;22.60;99.90
78550;DHT22;68091;52.130;5.570;2023-06-22T06:57:39;22.80;99.90
78550;DHT22;68091;52.130;5.570;2023-06-22T07:00:07;22.90;99.90
78550;DHT22;68091;52.130;5.570;2023-06-22T07:02:40;22.90;99.90
78550;DHT22;68091;52.130;5.570;2023-06-22T07:05:07;22.90;99.90
78550;DHT22;68091;52.130;5.570;2023-06-22T07:07:33;23.10;99.90
78550;DHT22;68091;52.130;5.570;2023-06-22T07:09:59;23.30;99.90
78550;DHT22;68091;52.130;5.570;2023-06-22T07:12:25;23.30;99.90
78550;DHT22;68091;52.130;5.570;2023-06-22T07:14:57;23.30;99.90
78550;DHT22;68091;52.130;5.570;2023-06-22T07:17:29;23.50;99.90
78550;DHT22;68091;52.130;5.570;2023-06-22T07:19:54;23.60;99.90
78550;DHT22;68091;52.130;5.570;2023-06-22T07:22:20;23.70;99.90
78550;DHT22;68091;52.130;5.570;2023-06-22T07:24:46;23.90;99.90
78550;DHT22;68091;52.130;5.570;2023-06-22T07:27:11;24.00;99.90
78550;DHT22;68091;52.130;5.570;2023-06-22T07:29:38;24.30;99.90
78550;DHT22;68091;52.130;5.570;2023-06-22T07:32:06;24.20;99.90
78550;DHT22;68091;52.130;5.570;2023-06-22T07:34:32;24.20;99.90
78550;DHT22;68091;52.130;5.570;2023-06-22T07:36:59;24.30;99.90
78550;DHT22;68091;52.130;5.570;2023-06-22T07:39:24;24.50;99.90
78550;DHT22;68091;52.130;5.570;2023-06-22T07:41:52;24.60;99.90
78550;DHT22;68091;52.130;5.570;2023-06-22T07:44:18;24.80;99.90
78550;DHT22;68091;52.130;5.570;2023-06-22T07:46:43;24.80;99.90
78550;DHT22;68091;52.130;5.570;2023-06-22T07:49:09;25.00;99.90
78550;DHT22;68091;52.130;5.570;2023-06-22T07:51:35;25.00;99.90
78550;DHT22;68091;52.130;5.570;2023-06-22T07:54:00;24.90;99.90
78550;DHT22;68091;52.130;5.570;2023-06-22T07:56:29;25.10;99.90
78550;DHT22;68091;52.130;5.570;2023-06-22T07:58:54;25.20;99.90
78550;DHT22;68091;52.130;5.570;2023-06-22T08:01:23;25.40;99.90
78550;DHT22;68091;52.130;5.570;2023-06-22T08:03:49;25.60;99.90
78550;DHT22;68091;52.130;5.570;2023-06-22T08:06:15;25.40;99.90
78550;DHT22;68091;52.130;5.570;2023-06-22T08:08:42;25.60;99.90
78550;DHT22;68091;52.130;5.570;2023-06-22T08:11:08;25.50;99.90
78550;DHT22;68091;52.130;5.570;2023-06-22T08:13:34;25.70;99.90
78550;DHT22;68091;52.130;5.570;2023-06-22T08:16:03;25.60;99.90
78550;DHT22;68091;52.130;5.570;2023-06-22T08:18:29;25.90;99.90
78550;DHT22;68091;52.130;5.570;2023-06-22T08:21:03;25.80;99.90
78550;DHT22;68091;52.130;5.570;2023-06-22T08:23:29;25.80;99.90
78550;DHT22;68091;52.130;5.570;2023-06-22T08:25:55;25.70;99.90
78550;DHT22;68091;52.130;5.570;2023-06-22T08:28:21;25.70;99.90
78550;DHT22;68091;52.130;5.570;2023-06-22T08:30:46;25.90;99.90
78550;DHT22;68091;52.130;5.570;2023-06-22T08:33:12;26.10;99.90
78550;DHT22;68091;52.130;5.570;2023-06-22T08:35:38;26.20;99.90
78550;DHT22;68091;52.130;5.570;2023-06-22T08:38:04;26.20;99.90
78550;DHT22;68091;52.130;5.570;2023-06-22T08:40:29;26.60;99.90
78550;DHT22;68091;52.130;5.570;2023-06-22T08:43:01;26.50;99.90
78550;DHT22;68091;52.130;5.570;2023-06-22T08:45:27;26.30;99.90
78550;DHT22;68091;52.130;5.570;2023-06-22T08:47:53;26.10;99.90
78550;DHT22;68091;52.130;5.570;2023-06-22T08:50:18;26.30;99.90
78550;DHT22;68091;52.130;5.570;2023-06-22T08:52:44;26.30;99.90
78550;DHT22;68091;52.130;5.570;2023-06-22T08:55:11;26.30;99.90
78550;DHT22;68091;52.130;5.570;2023-06-22T08:57:36;26.50;99.90
78550;DHT22;68091;52.130;5.570;2023-06-22T09:00:07;26.70;99.90
78550;DHT22;68091;52.130;5.570;2023-06-22T09:02:45;26.80;99.90
78550;DHT22;68091;52.130;5.570;2023-06-22T09:05:11;26.70;99.90
78550;DHT22;68091;52.130;5.570;2023-06-22T09:07:37;26.40;99.90
78550;DHT22;68091;52.130;5.570;2023-06-22T09:10:03;26.50;99.90
78550;DHT22;68091;52.130;5.570;2023-06-22T09:12:31;26.70;99.90
78550;DHT22;68091;52.130;5.570;2023-06-22T09:15:01;26.80;99.90
78550;DHT22;68091;52.130;5.570;2023-06-22T09:17:28;26.60;99.90
78550;DHT22;68091;52.130;5.570;2023-06-22T09:19:53;26.50;99.90
78550;DHT22;68091;52.130;5.570;2023-06-22T09:22:19;26.50;99.90
78550;DHT22;68091;52.130;5.570;2023-06-22T09:24:45;26.60;99.90
78550;DHT22;68091;52.130;5.570;2023-06-22T09:27:11;26.90;99.90
78550;DHT22;68091;52.130;5.570;2023-06-22T09:29:36;26.80;99.90
78550;DHT22;68091;52.130;5.570;2023-06-22T09:32:02;27.00;99.90
78550;DHT22;68091;52.130;5.570;2023-06-22T09:34:28;26.90;99.90
78550;DHT22;68091;52.130;5.570;2023-06-22T09:36:53;26.80;99.90
78550;DHT22;68091;52.130;5.570;2023-06-22T09:39:20;27.10;99.90
78550;DHT22;68091;52.130;5.570;2023-06-22T09:41:46;27.00;99.90
78550;DHT22;68091;52.130;5.570;2023-06-22T09:44:14;27.00;99.90
78550;DHT22;68091;52.130;5.570;2023-06-22T09:46:40;27.20;99.90
78550;DHT22;68091;52.130;5.570;2023-06-22T09:49:06;27.30;99.90
78550;DHT22;68091;52.130;5.570;2023-06-22T09:51:31;27.10;99.90
78550;DHT22;68091;52.130;5.570;2023-06-22T09:53:57;27.10;99.90
78550;DHT22;68091;52.130;5.570;2023-06-22T09:56:23;27.00;99.90
78550;DHT22;68091;52.130;5.570;2023-06-22T09:58:49;26.90;99.90
78550;DHT22;68091;52.130;5.570;2023-06-22T10:01:18;27.00;99.90
78550;DHT22;68091;52.130;5.570;2023-06-22T10:03:43;27.00;99.90
78550;DHT22;68091;52.130;5.570;2023-06-22T10:06:12;26.90;99.90
78550;DHT22;68091;52.130;5.570;2023-06-22T10:08:38;26.70;99.90
78550;DHT22;68091;52.130;5.570;2023-06-22T10:11:04;26.70;99.90
78550;DHT22;68091;52.130;5.570;2023-06-22T10:13:31;26.40;99.90
78550;DHT22;68091;52.130;5.570;2023-06-22T10:15:59;26.40;99.90
78550;DHT22;68091;52.130;5.570;2023-06-22T10:18:25;26.30;99.90
78550;DHT22;68091;52.130;5.570;2023-06-22T10:20:53;26.00;99.90
78550;DHT22;68091;52.130;5.570;2023-06-22T10:23:22;25.90;99.90
78550;DHT22;68091;52.130;5.570;2023-06-22T10:25:48;25.90;99.90
78550;DHT22;68091;52.130;5.570;2023-06-22T10:28:23;25.80;99.90
78550;DHT22;68091;52.130;5.570;2023-06-22T10:30:49;25.70;99.90
78550;DHT22;68091;52.130;5.570;2023-06-22T10:33:14;25.60;99.90
78550;DHT22;68091;52.130;5.570;2023-06-22T10:35:40;25.60;99.90
78550;DHT22;68091;52.130;5.570;2023-06-22T10:38:06;25.50;99.90
78550;DHT22;68091;52.130;5.570;2023-06-22T10:40:32;25.40;99.90
78550;DHT22;68091;52.130;5.570;2023-06-22T10:42:57;25.20;99.90
78550;DHT22;68091;52.130;5.570;2023-06-22T10:45:23;25.40;99.90
78550;DHT22;68091;52.130;5.570;2023-06-22T10:47:49;25.40;99.90
78550;DHT22;68091;52.130;5.570;2023-06-22T10:50:15;25.50;99.90
78550;DHT22;68091;52.130;5.570;2023-06-22T10:52:40;25.50;99.90
78550;DHT22;68091;52.130;5.570;2023-06-22T10:55:10;25.70;99.90
78550;DHT22;68091;52.130;5.570;2023-06-22T10:57:36;25.80;99.90
78550;DHT22;68091;52.130;5.570;2023-06-22T11:00:02;25.90;99.90
78550;DHT22;68091;52.130;5.570;2023-06-22T11:02:31;26.10;99.90
78550;DHT22;68091;52.130;5.570;2023-06-22T11:04:57;26.20;99.90
78550;DHT22;68091;52.130;5.570;2023-06-22T11:07:26;26.30;99.90
78550;DHT22;68091;52.130;5.570;2023-06-22T11:09:54;26.30;99.90
78550;DHT22;68091;52.130;5.570;2023-06-22T11:12:19;26.40;99.90
78550;DHT22;68091;52.130;5.570;2023-06-22T11:14:45;26.60;99.90
78550;DHT22;68091;52.130;5.570;2023-06-22T11:17:11;26.60;99.90
78550;DHT22;68091;52.130;5.570;2023-06-22T11:19:37;26.60;99.90
78550;DHT22;68091;52.130;5.570;2023-06-22T11:22:02;26.60;99.90
78550;DHT22;68091;52.130;5.570;2023-06-22T11:24:28;26.60;99.90
78550;DHT22;68091;52.130;5.570;2023-06-22T11:26:54;26.60;99.90
78550;DHT22;68091;52.130;5.570;2023-06-22T11:29:20;26.60;99.90
78550;DHT22;68091;52.130;5.570;2023-06-22T11:31:45;26.40;99.90
78550;DHT22;68091;52.130;5.570;2023-06-22T11:34:11;26.50;99.90
78550;DHT22;68091;52.130;5.570;2023-06-22T11:36:37;26.40;99.90
78550;DHT22;68091;52.130;5.570;2023-06-22T11:39:02;26.20;99.90
78550;DHT22;68091;52.130;5.570;2023-06-22T11:41:28;26.30;99.90
78550;DHT22;68091;52.130;5.570;2023-06-22T11:43:56;26.30;99.90
78550;DHT22;68091;52.130;5.570;2023-06-22T11:46:25;26.40;99.90
78550;DHT22;68091;52.130;5.570;2023-06-22T11:48:50;26.50;99.90
78550;DHT22;68091;52.130;5.570;2023-06-22T11:51:18;26.50;99.90
78550;DHT22;68091;52.130;5.570;2023-06-22T11:53:44;26.40;99.90
78550;DHT22;68091;52.130;5.570;2023-06-22T11:56:09;26.40;99.90
78550;DHT22;68091;52.130;5.570;2023-06-22T11:58:36;26.40;99.90
78550;DHT22;68091;52.130;5.570;2023-06-22T12:01:04;26.30;99.90
78550;DHT22;68091;52.130;5.570;2023-06-22T12:03:30;26.20;99.90
78550;DHT22;68091;52.130;5.570;2023-06-22T12:05:56;26.10;99.90
78550;DHT22;68091;52.130;5.570;2023-06-22T12:08:22;26.00;99.90
78550;DHT22;68091;52.130;5.570;2023-06-22T12:10:49;25.80;99.90
78550;DHT22;68091;52.130;5.570;2023-06-22T12:13:15;25.40;99.90
78550;DHT22;68091;52.130;5.570;2023-06-22T12:15:41;25.40;99.90
78550;DHT22;68091;52.130;5.570;2023-06-22T12:18:07;25.20;99.90
78550;DHT22;68091;52.130;5.570;2023-06-22T12:20:33;25.10;99.90
78550;DHT22;68091;52.130;5.570;2023-06-22T12:22:59;25.10;99.90
78550;DHT22;68091;52.130;5.570;2023-06-22T12:25:28;25.10;99.90
78550;DHT22;68091;52.130;5.570;2023-06-22T12:27:54;24.90;99.90
78550;DHT22;68091;52.130;5.570;2023-06-22T12:30:19;24.70;99.90
78550;DHT22;68091;52.130;5.570;2023-06-22T12:32:45;24.70;99.90
78550;DHT22;68091;52.130;5.570;2023-06-22T12:35:25;24.50;99.90
78550;DHT22;68091;52.130;5.570;2023-06-22T12:37:59;24.30;99.90
78550;DHT22;68091;52.130;5.570;2023-06-22T12:40:25;24.30;99.90
78550;DHT22;68091;52.130;5.570;2023-06-22T12:42:51;24.40;99.90
78550;DHT22;68091;52.130;5.570;2023-06-22T12:45:16;24.50;99.90
78550;DHT22;68091;52.130;5.570;2023-06-22T12:47:42;24.50;99.90
78550;DHT22;68091;52.130;5.570;2023-06-22T12:50:08;24.60;99.90
78550;DHT22;68091;52.130;5.570;2023-06-22T12:52:36;24.50;99.90
78550;DHT22;68091;52.130;5.570;2023-06-22T12:55:05;24.50;99.90
78550;DHT22;68091;52.130;5.570;2023-06-22T12:57:31;24.50;99.90
78550;DHT22;68091;52.130;5.570;2023-06-22T12:59:57;24.40;99.90
78550;DHT22;68091;52.130;5.570;2023-06-22T13:02:24;24.50;99.90
78550;DHT22;68091;52.130;5.570;2023-06-22T13:04:49;24.50;99.90
78550;DHT22;68091;52.130;5.570;2023-06-22T13:07:15;24.70;99.90
78550;DHT22;68091;52.130;5.570;2023-06-22T13:09:40;24.40;99.90
78550;DHT22;68091;52.130;5.570;2023-06-22T13:12:06;24.40;99.90
78550;DHT22;68091;52.130;5.570;2023-06-22T13:14:32;24.30;99.90
78550;DHT22;68091;52.130;5.570;2023-06-22T13:16:58;24.20;99.90
78550;DHT22;68091;52.130;5.570;2023-06-22T13:19:26;24.20;99.90
78550;DHT22;68091;52.130;5.570;2023-06-22T13:21:54;24.10;99.90
78550;DHT22;68091;52.130;5.570;2023-06-22T13:24:19;24.00;99.90
78550;DHT22;68091;52.130;5.570;2023-06-22T13:26:45;23.90;99.90
78550;DHT22;68091;52.130;5.570;2023-06-22T13:29:11;23.90;99.90
78550;DHT22;68091;52.130;5.570;2023-06-22T13:31:37;23.90;99.90
78550;DHT22;68091;52.130;5.570;2023-06-22T13:34:03;24.00;99.90
78550;DHT22;68091;52.130;5.570;2023-06-22T13:36:28;24.00;99.90
78550;DHT22;68091;52.130;5.570;2023-06-22T13:38:56;23.90;99.90
78550;DHT22;68091;52.130;5.570;2023-06-22T13:41:21;23.90;99.90
78550;DHT22;68091;52.130;5.570;2023-06-22T13:43:47;23.90;99.90
78550;DHT22;68091;52.130;5.570;2023-06-22T13:46:13;24.00;99.90
78550;DHT22;68091;52.130;5.570;2023-06-22T13:48:38;23.80;99.90
78550;DHT22;68091;52.130;5.570;2023-06-22T13:51:04;23.90;99.90
78550;DHT22;68091;52.130;5.570;2023-06-22T13:53:30;23.90;99.90
78550;DHT22;68091;52.130;5.570;2023-06-22T13:55:56;23.90;99.90
78550;DHT22;68091;52.130;5.570;2023-06-22T13:58:22;24.00;99.90
78550;DHT22;68091;52.130;5.570;2023-06-22T14:00:47;23.90;99.90
78550;DHT22;68091;52.130;5.570;2023-06-22T14:03:14;24.00;99.90
78550;DHT22;68091;52.130;5.570;2023-06-22T14:05:42;23.90;99.90
78550;DHT22;68091;52.130;5.570;2023-06-22T14:08:08;24.00;99.90
78550;DHT22;68091;52.130;5.570;2023-06-22T14:10:34;24.00;99.90
78550;DHT22;68091;52.130;5.570;2023-06-22T14:13:00;24.00;99.90
78550;DHT22;68091;52.130;5.570;2023-06-22T14:15:26;24.00;99.90
78550;DHT22;68091;52.130;5.570;2023-06-22T14:17:55;23.90;99.90
78550;DHT22;68091;52.130;5.570;2023-06-22T14:20:20;23.80;99.90
78550;DHT22;68091;52.130;5.570;2023-06-22T14:22:48;23.80;99.90
78550;DHT22;68091;52.130;5.570;2023-06-22T14:25:14;23.70;99.90
78550;DHT22;68091;52.130;5.570;2023-06-22T14:27:40;23.80;99.90
78550;DHT22;68091;52.130;5.570;2023-06-22T14:30:06;23.70;99.90
78550;DHT22;68091;52.130;5.570;2023-06-22T14:32:32;23.60;99.90
78550;DHT22;68091;52.130;5.570;2023-06-22T14:34:57;23.60;99.90
78550;DHT22;68091;52.130;5.570;2023-06-22T14:37:23;23.60;99.90
78550;DHT22;68091;52.130;5.570;2023-06-22T14:39:49;23.50;99.90
78550;DHT22;68091;52.130;5.570;2023-06-22T14:42:14;23.30;99.90
78550;DHT22;68091;52.130;5.570;2023-06-22T14:44:40;23.20;99.90
78550;DHT22;68091;52.130;5.570;2023-06-22T14:47:09;23.10;99.90
78550;DHT22;68091;52.130;5.570;2023-06-22T14:49:35;23.10;99.90
78550;DHT22;68091;52.130;5.570;2023-06-22T14:52:01;23.00;99.90
78550;DHT22;68091;52.130;5.570;2023-06-22T14:54:27;22.90;99.90
78550;DHT22;68091;52.130;5.570;2023-06-22T14:56:52;22.90;99.90
78550;DHT22;68091;52.130;5.570;2023-06-22T14:59:18;22.90;99.90
78550;DHT22;68091;52.130;5.570;2023-06-22T15:01:44;22.80;99.90
78550;DHT22;68091;52.130;5.570;2023-06-22T15:04:09;22.70;99.90
78550;DHT22;68091;52.130;5.570;2023-06-22T15:06:38;22.60;99.90
78550;DHT22;68091;52.130;5.570;2023-06-22T15:09:03;22.60;99.90
78550;DHT22;68091;52.130;5.570;2023-06-22T15:11:32;22.50;99.90
78550;DHT22;68091;52.130;5.570;2023-06-22T15:13:59;22.40;99.90
78550;DHT22;68091;52.130;5.570;2023-06-22T15:16:26;22.30;99.90
78550;DHT22;68091;52.130;5.570;2023-06-22T15:18:52;22.20;99.90
78550;DHT22;68091;52.130;5.570;2023-06-22T15:21:17;22.10;99.90
78550;DHT22;68091;52.130;5.570;2023-06-22T15:23:46;22.00;99.90
78550;DHT22;68091;52.130;5.570;2023-06-22T15:26:11;22.00;99.90
78550;DHT22;68091;52.130;5.570;2023-06-22T15:28:39;21.90;99.90
78550;DHT22;68091;52.130;5.570;2023-06-22T15:31:05;21.70;99.90
78550;DHT22;68091;52.130;5.570;2023-06-22T15:33:31;21.60;99.90
78550;DHT22;68091;52.130;5.570;2023-06-22T15:35:58;21.50;99.90